Time;durP1;ratioP1;P1;durP2;ratioP2;P2;SDS_P1;SDS_P2;PMS_P1;PMS_P2;Temp;Humidity;BMP_temperature;BMP_pressure;BME280_temperature;BME280_humidity;BME280_pressure;Samples;Min_cycle;Max_cycle;Signal;HPM_P1;HPM_P2
2021/12/29 00:02:24;;;;;;;92.80;50.03;;;;;;;;;;4993615;28;20479;-88
2021/12/29 00:04:49;;;;;;;90.13;50.33;;;;;;;;;;4976250;28;20030;-88
2021/12/29 00:07:15;;;;;;;97.40;51.45;;;;;;;;;;4993697;28;20019;-88
2021/12/29 00:09:40;;;;;;;95.25;47.88;;;;;;;;;;4994350;28;20025;-88
2021/12/29 00:12:07;;;;;;;95.10;50.88;;;;;;;;;;4978497;28;20695;-88
2021/12/29 00:14:32;;;;;;;101.43;51.17;;;;;;;;;;4998575;28;20498;-88
2021/12/29 00:16:58;;;;;;;92.00;49.75;;;;;;;;;;4977576;28;20027;-88
2021/12/29 00:19:23;;;;;;;96.15;50.83;;;;;;;;;;4992816;28;20117;-88
2021/12/29 00:21:48;;;;;;;92.13;51.05;;;;;;;;;;4992990;28;20090;-89
2021/12/29 00:24:14;;;;;;;89.38;49.22;;;;;;;;;;4993272;28;20058;-89
2021/12/29 00:26:39;;;;;;;91.60;49.47;;;;;;;;;;4993035;28;20030;-89
2021/12/29 00:29:04;;;;;;;94.00;48.92;;;;;;;;;;4975679;28;20025;-89
2021/12/29 00:31:30;;;;;;;88.63;50.57;;;;;;;;;;4993354;28;20469;-89
2021/12/29 00:33:56;;;;;;;90.45;49.40;;;;;;;;;;4978108;28;20269;-89
2021/12/29 00:36:21;;;;;;;90.85;49.70;;;;;;;;;;4994178;28;20158;-89
2021/12/29 00:38:46;;;;;;;90.57;49.97;;;;;;;;;;4994252;28;20022;-89
2021/12/29 00:41:12;;;;;;;86.85;49.10;;;;;;;;;;4995270;28;20268;-88
2021/12/29 00:43:37;;;;;;;83.47;48.58;;;;;;;;;;4994222;28;20033;-89
2021/12/29 00:46:03;;;;;;;86.45;45.15;;;;;;;;;;4976298;28;20495;-89
2021/12/29 00:48:35;;;;;;;88.18;47.90;;;;;;;;;;4976527;28;20113;-89
2021/12/29 00:51:00;;;;;;;88.50;48.58;;;;;;;;;;4976008;28;20430;-89
2021/12/29 00:53:26;;;;;;;90.47;48.80;;;;;;;;;;4974984;28;20026;-89
2021/12/29 00:55:51;;;;;;;87.20;49.70;;;;;;;;;;4974974;28;20034;-89
2021/12/29 00:58:16;;;;;;;93.03;49.22;;;;;;;;;;4992657;28;20685;-88
2021/12/29 01:00:42;;;;;;;106.97;52.38;;;;;;;;;;4992412;28;20026;-89
2021/12/29 01:03:08;;;;;;;87.60;47.85;;;;;;;;;;4977777;28;20026;-88
2021/12/29 01:05:33;;;;;;;95.50;49.75;;;;;;;;;;4977039;28;20130;-89
2021/12/29 01:07:58;;;;;;;90.40;50.13;;;;;;;;;;4992238;28;20014;-88
2021/12/29 01:10:24;;;;;;;96.93;53.03;;;;;;;;;;4974939;28;20379;-88
2021/12/29 01:13:00;;;;;;;92.28;51.88;;;;;;;;;;4991532;28;20045;-88
2021/12/29 01:15:32;;;;;;;98.28;51.45;;;;;;;;;;4991636;28;20465;-88
2021/12/29 01:17:58;;;;;;;93.57;50.78;;;;;;;;;;4974154;28;20050;-88
2021/12/29 01:20:25;;;;;;;96.22;51.55;;;;;;;;;;4974739;28;20068;-87
2021/12/29 01:22:50;;;;;;;97.55;50.05;;;;;;;;;;4992133;28;20113;-88
2021/12/29 01:25:16;;;;;;;104.28;52.70;;;;;;;;;;4991569;28;20093;-89
2021/12/29 01:27:42;;;;;;;91.72;51.15;;;;;;;;;;4974198;28;20068;-88
2021/12/29 01:30:10;;;;;;;96.32;50.53;;;;;;;;;;4992356;28;20031;-88
2021/12/29 01:32:36;;;;;;;94.50;50.95;;;;;;;;;;4993140;28;20018;-88
2021/12/29 01:35:02;;;;;;;104.47;50.80;;;;;;;;;;4992540;28;20033;-88
2021/12/29 01:37:27;;;;;;;89.38;51.15;;;;;;;;;;4974109;28;20718;-89
2021/12/29 01:39:53;;;;;;;99.03;50.22;;;;;;;;;;4995619;28;20026;-89
2021/12/29 01:42:18;;;;;;;91.20;50.40;;;;;;;;;;4974006;28;20479;-89
2021/12/29 01:44:43;;;;;;;93.27;51.30;;;;;;;;;;4974183;28;20467;-89
2021/12/29 01:47:08;;;;;;;102.93;50.88;;;;;;;;;;4973715;28;20297;-88
2021/12/29 01:49:34;;;;;;;103.00;51.08;;;;;;;;;;4991533;28;20083;-88
2021/12/29 01:52:09;;;;;;;104.88;54.03;;;;;;;;;;4991477;28;20026;-88
2021/12/29 01:54:35;;;;;;;100.25;51.78;;;;;;;;;;4991672;28;20029;-88
2021/12/29 01:57:01;;;;;;;97.68;51.72;;;;;;;;;;4973694;28;20057;-88
2021/12/29 01:59:27;;;;;;;99.93;53.22;;;;;;;;;;4991375;28;20026;-88
2021/12/29 02:01:53;;;;;;;102.05;53.97;;;;;;;;;;4991364;28;20022;-89
2021/12/29 02:04:18;;;;;;;101.05;54.25;;;;;;;;;;4974251;28;20022;-89
2021/12/29 02:06:44;;;;;;;99.10;54.58;;;;;;;;;;4991580;28;20022;-89
2021/12/29 02:09:09;;;;;;;104.45;57.85;;;;;;;;;;4991384;28;20519;-88
2021/12/29 02:11:37;;;;;;;101.95;55.22;;;;;;;;;;4974824;28;20045;-88
2021/12/29 02:14:03;;;;;;;112.10;57.53;;;;;;;;;;4992895;28;20047;-89
2021/12/29 02:16:29;;;;;;;108.13;57.95;;;;;;;;;;4990931;28;20034;-89
2021/12/29 02:18:58;;;;;;;105.40;55.67;;;;;;;;;;4991646;28;20018;-89
2021/12/29 02:21:25;;;;;;;101.75;55.92;;;;;;;;;;4991606;28;20038;-89
2021/12/29 02:26:36;;;;;;;110.63;55.08;;;;;;;;;;4991635;28;20041;-88
2021/12/29 02:29:02;;;;;;;99.07;53.50;;;;;;;;;;4991030;28;20022;-88
2021/12/29 02:31:28;;;;;;;103.35;55.67;;;;;;;;;;4991065;28;20060;-89
2021/12/29 02:33:53;;;;;;;108.82;57.65;;;;;;;;;;4990635;28;20424;-89
2021/12/29 02:36:19;;;;;;;102.75;53.92;;;;;;;;;;4973643;28;20034;-89
2021/12/29 02:38:50;;;;;;;104.38;55.25;;;;;;;;;;4994122;28;20022;-89
2021/12/29 02:41:15;;;;;;;103.80;56.50;;;;;;;;;;4994774;28;20034;-88
2021/12/29 02:43:41;;;;;;;113.05;57.50;;;;;;;;;;4976539;28;20030;-88
2021/12/29 02:46:11;;;;;;;109.90;57.25;;;;;;;;;;4977151;28;20029;-87
2021/12/29 02:48:40;;;;;;;104.50;55.53;;;;;;;;;;4980516;28;20042;-88
2021/12/29 02:51:07;;;;;;;113.03;56.58;;;;;;;;;;4977494;28;20026;-88
2021/12/29 02:53:33;;;;;;;112.93;57.08;;;;;;;;;;4994565;28;20438;-88
2021/12/29 02:55:58;;;;;;;106.75;57.72;;;;;;;;;;4976909;28;20034;-88
2021/12/29 02:58:24;;;;;;;111.47;56.13;;;;;;;;;;4977448;28;20029;-88
2021/12/29 03:00:49;;;;;;;106.78;55.03;;;;;;;;;;4995283;28;20510;-88
2021/12/29 03:03:19;;;;;;;110.25;56.47;;;;;;;;;;4995036;28;20046;-88
2021/12/29 03:05:44;;;;;;;114.82;56.05;;;;;;;;;;4977087;28;20054;-88
2021/12/29 03:08:11;;;;;;;119.05;56.95;;;;;;;;;;4976708;28;20490;-88
2021/12/29 03:10:37;;;;;;;108.75;57.22;;;;;;;;;;4976503;28;20509;-88
2021/12/29 03:13:02;;;;;;;111.30;56.28;;;;;;;;;;4976383;28;20022;-88
2021/12/29 03:15:27;;;;;;;109.47;57.20;;;;;;;;;;4993989;28;20030;-88
2021/12/29 03:17:53;;;;;;;109.53;56.22;;;;;;;;;;4994266;28;20050;-89
2021/12/29 03:20:18;;;;;;;110.32;52.53;;;;;;;;;;4978029;28;20022;-88
2021/12/29 03:22:43;;;;;;;114.45;58.38;;;;;;;;;;4993918;28;20686;-89
2021/12/29 03:25:08;;;;;;;110.38;59.90;;;;;;;;;;4976536;28;20057;-89
2021/12/29 03:27:33;;;;;;;116.13;57.22;;;;;;;;;;4993925;28;20026;-89
2021/12/29 03:29:59;;;;;;;116.78;60.65;;;;;;;;;;4994179;28;20030;-89
2021/12/29 03:32:37;;;;;;;110.60;58.95;;;;;;;;;;4976029;28;20030;-89
2021/12/29 03:35:03;;;;;;;113.57;59.65;;;;;;;;;;4994112;28;20449;-88
2021/12/29 03:37:28;;;;;;;117.43;59.72;;;;;;;;;;4977027;28;20090;-88
2021/12/29 03:39:53;;;;;;;114.65;58.45;;;;;;;;;;4994105;28;20030;-88
2021/12/29 03:42:18;;;;;;;117.03;59.47;;;;;;;;;;4993838;28;20094;-89
2021/12/29 03:44:43;;;;;;;111.55;59.30;;;;;;;;;;4975952;28;20856;-88
2021/12/29 03:47:09;;;;;;;112.80;57.23;;;;;;;;;;4993746;28;20038;-89
2021/12/29 03:49:34;;;;;;;120.43;59.90;;;;;;;;;;4992950;28;20742;-88
2021/12/29 03:51:59;;;;;;;116.10;60.17;;;;;;;;;;4994229;28;20122;-88
2021/12/29 03:54:24;;;;;;;125.00;60.90;;;;;;;;;;4978764;28;20418;-89
2021/12/29 03:56:50;;;;;;;109.30;58.00;;;;;;;;;;4976245;28;20399;-89
2021/12/29 03:59:16;;;;;;;115.38;61.20;;;;;;;;;;4993712;28;20069;-88
2021/12/29 04:01:42;;;;;;;114.82;59.30;;;;;;;;;;4994085;28;20023;-88
2021/12/29 04:04:07;;;;;;;119.72;59.90;;;;;;;;;;4975677;28;20826;-89
2021/12/29 04:06:32;;;;;;;119.85;63.25;;;;;;;;;;4975706;28;20034;-89
2021/12/29 04:08:57;;;;;;;123.80;57.90;;;;;;;;;;4976337;28;20381;-88
2021/12/29 04:11:22;;;;;;;118.43;59.33;;;;;;;;;;4993865;28;20266;-89
2021/12/29 04:13:50;;;;;;;110.05;58.40;;;;;;;;;;4992537;28;20328;-89
2021/12/29 04:16:17;;;;;;;115.82;58.72;;;;;;;;;;4993522;28;20040;-89
2021/12/29 04:18:55;;;;;;;115.50;63.13;;;;;;;;;;4975405;28;20022;-89
2021/12/29 04:21:21;;;;;;;116.43;59.60;;;;;;;;;;4975225;28;20034;-88
2021/12/29 04:23:46;;;;;;;115.78;59.28;;;;;;;;;;4993584;28;20097;-89
2021/12/29 04:26:11;;;;;;;118.60;60.10;;;;;;;;;;4993883;28;20077;-89
2021/12/29 04:28:37;;;;;;;120.22;58.80;;;;;;;;;;4993252;28;20019;-89
2021/12/29 04:31:08;;;;;;;115.53;59.90;;;;;;;;;;4992829;28;20077;-89
2021/12/29 04:33:34;;;;;;;123.47;64.20;;;;;;;;;;4975015;28;20018;-89
2021/12/29 04:35:59;;;;;;;118.68;59.72;;;;;;;;;;4975083;28;20149;-89
2021/12/29 04:38:25;;;;;;;126.68;62.28;;;;;;;;;;4975042;28;20409;-88
2021/12/29 04:40:52;;;;;;;114.85;60.13;;;;;;;;;;4992713;28;20031;-88
2021/12/29 04:43:17;;;;;;;117.68;61.42;;;;;;;;;;4975061;28;20109;-88
2021/12/29 04:45:43;;;;;;;125.45;62.25;;;;;;;;;;4975203;28;20109;-89
2021/12/29 04:48:13;;;;;;;123.38;60.75;;;;;;;;;;4975320;28;20046;-89
2021/12/29 04:50:39;;;;;;;130.23;65.32;;;;;;;;;;4992564;28;20018;-88
2021/12/29 04:53:06;;;;;;;123.28;63.08;;;;;;;;;;4975049;28;20172;-88
2021/12/29 04:55:31;;;;;;;131.65;62.03;;;;;;;;;;4991901;28;20041;-88
2021/12/29 04:57:57;;;;;;;128.00;64.00;;;;;;;;;;4992169;28;20030;-88
2021/12/29 05:00:24;;;;;;;128.48;62.33;;;;;;;;;;4992005;28;20383;-88
2021/12/29 05:02:50;;;;;;;115.95;60.42;;;;;;;;;;4991983;28;20030;-88
2021/12/29 05:05:22;;;;;;;123.70;61.85;;;;;;;;;;4991954;28;20030;-88
2021/12/29 05:10:32;;;;;;;128.73;63.88;;;;;;;;;;4992238;28;20053;-88
2021/12/29 05:12:57;;;;;;;129.93;63.08;;;;;;;;;;4991491;28;20015;-88
2021/12/29 05:15:22;;;;;;;128.02;64.13;;;;;;;;;;4991766;28;20113;-88
2021/12/29 05:17:47;;;;;;;120.47;61.55;;;;;;;;;;4974552;28;20391;-88
2021/12/29 05:20:12;;;;;;;122.93;63.45;;;;;;;;;;4992034;28;20029;-88
2021/12/29 05:22:38;;;;;;;122.45;62.60;;;;;;;;;;4975782;28;20029;-88
2021/12/29 05:25:03;;;;;;;125.57;63.92;;;;;;;;;;4976120;28;20022;-88
2021/12/29 05:27:28;;;;;;;130.20;64.07;;;;;;;;;;4992951;28;20030;-88
2021/12/29 05:29:53;;;;;;;127.50;62.33;;;;;;;;;;4975789;28;20077;-88
2021/12/29 05:32:19;;;;;;;134.57;63.78;;;;;;;;;;4976259;28;20026;-88
2021/12/29 05:34:44;;;;;;;126.40;63.70;;;;;;;;;;4993107;28;20022;-88
2021/12/29 05:37:09;;;;;;;126.88;63.55;;;;;;;;;;4994384;28;20754;-88
2021/12/29 05:39:34;;;;;;;122.40;61.75;;;;;;;;;;4974707;28;20022;-88
2021/12/29 05:42:00;;;;;;;119.35;62.38;;;;;;;;;;4991683;28;20057;-89
2021/12/29 05:44:25;;;;;;;128.93;64.55;;;;;;;;;;4991537;28;20033;-89
2021/12/29 05:46:50;;;;;;;131.27;63.70;;;;;;;;;;4974000;28;20030;-88
2021/12/29 05:49:15;;;;;;;123.43;62.53;;;;;;;;;;4991232;28;20030;-88
2021/12/29 05:51:40;;;;;;;122.95;63.25;;;;;;;;;;4973639;28;20792;-88
2021/12/29 05:54:06;;;;;;;113.00;59.58;;;;;;;;;;4973621;28;20026;-88
2021/12/29 05:56:31;;;;;;;124.13;61.77;;;;;;;;;;4973288;28;20038;-88
2021/12/29 05:58:59;;;;;;;136.63;65.05;;;;;;;;;;4973352;28;20293;-88
2021/12/29 06:01:25;;;;;;;122.32;62.50;;;;;;;;;;4973618;28;20025;-88
2021/12/29 06:03:50;;;;;;;120.85;61.20;;;;;;;;;;4991386;28;20030;-88
2021/12/29 06:06:16;;;;;;;125.80;61.63;;;;;;;;;;4973877;28;20423;-89
2021/12/29 06:08:41;;;;;;;132.75;63.67;;;;;;;;;;4974401;28;20481;-88
2021/12/29 06:11:08;;;;;;;123.72;61.78;;;;;;;;;;4975293;28;20149;-89
2021/12/29 06:13:34;;;;;;;122.55;63.00;;;;;;;;;;4993904;28;20061;-88
2021/12/29 06:15:59;;;;;;;130.57;66.95;;;;;;;;;;4989819;28;20034;-88
2021/12/29 06:18:30;;;;;;;140.43;65.93;;;;;;;;;;5002855;23;20054;-88
2021/12/29 06:20:56;;;;;;;138.73;67.20;;;;;;;;;;4959589;28;20022;-87
2021/12/29 06:23:23;;;;;;;138.50;65.63;;;;;;;;;;4952338;29;20042;-87
2021/12/29 06:25:49;;;;;;;142.63;65.47;;;;;;;;;;4938440;29;20025;-87
2021/12/29 06:28:14;;;;;;;142.75;69.20;;;;;;;;;;4955306;29;20022;-88
2021/12/29 06:30:41;;;;;;;141.32;68.40;;;;;;;;;;4937840;29;20019;-88
2021/12/29 06:33:07;;;;;;;148.52;67.65;;;;;;;;;;5004080;23;20047;-88
2021/12/29 06:35:32;;;;;;;159.85;72.50;;;;;;;;;;4970638;28;20038;-88
2021/12/29 06:38:03;;;;;;;142.65;66.28;;;;;;;;;;4973012;28;20045;-88
2021/12/29 06:40:33;;;;;;;138.30;65.53;;;;;;;;;;4970392;28;20026;-89
2021/12/29 06:42:58;;;;;;;130.30;63.20;;;;;;;;;;4972279;28;20027;-88
2021/12/29 06:45:26;;;;;;;138.40;64.88;;;;;;;;;;4972648;28;20034;-88
2021/12/29 06:47:54;;;;;;;137.40;63.42;;;;;;;;;;4956964;28;20114;-88
2021/12/29 06:52:52;;;;;;;137.80;65.15;;;;;;;;;;4415825;23;20534;-89
2021/12/29 06:55:25;;;;;;;139.15;63.42;;;;;;;;;;4974021;28;20144;-89
2021/12/29 06:58:16;;;;;;;154.02;67.63;;;;;;;;;;4629941;23;21314;-89
2021/12/29 07:00:42;;;;;;;141.13;69.25;;;;;;;;;;4933613;29;20059;-88
2021/12/29 07:03:08;;;;;;;146.82;66.47;;;;;;;;;;4914376;29;20122;-88
2021/12/29 07:05:33;;;;;;;143.90;67.40;;;;;;;;;;4898184;29;20024;-88
2021/12/29 07:07:59;;;;;;;133.70;64.78;;;;;;;;;;4899574;29;20477;-88
2021/12/29 07:10:25;;;;;;;137.05;65.88;;;;;;;;;;4899425;29;20366;-87
2021/12/29 07:12:51;;;;;;;131.93;64.20;;;;;;;;;;4899415;29;20075;-88
2021/12/29 07:15:16;;;;;;;138.20;66.15;;;;;;;;;;4899452;29;20028;-88
2021/12/29 07:17:42;;;;;;;145.40;66.93;;;;;;;;;;4916553;29;20107;-89
2021/12/29 07:20:10;;;;;;;137.75;64.35;;;;;;;;;;5015259;23;20054;-89
2021/12/29 07:25:18;;;;;;;136.32;62.88;;;;;;;;;;4473030;23;20077;-88
2021/12/29 07:27:43;;;;;;;133.80;63.30;;;;;;;;;;4988416;28;20689;-88
2021/12/29 07:30:09;;;;;;;137.00;63.55;;;;;;;;;;4973532;28;20019;-88
2021/12/29 07:32:34;;;;;;;141.10;67.72;;;;;;;;;;4971847;28;20101;-88
2021/12/29 07:34:59;;;;;;;148.32;65.93;;;;;;;;;;4972963;28;20050;-88
2021/12/29 07:37:25;;;;;;;146.82;67.68;;;;;;;;;;4971765;28;20553;-87
2021/12/29 07:39:50;;;;;;;157.20;67.95;;;;;;;;;;4971968;28;20019;-88
2021/12/29 07:42:15;;;;;;;143.02;64.50;;;;;;;;;;4972095;28;20471;-88
2021/12/29 07:44:43;;;;;;;144.57;65.18;;;;;;;;;;4971087;28;20029;-88
2021/12/29 07:47:10;;;;;;;146.18;66.10;;;;;;;;;;4971693;28;20869;-88
2021/12/29 07:49:35;;;;;;;145.30;67.30;;;;;;;;;;4971421;28;20196;-87
2021/12/29 07:52:01;;;;;;;131.88;64.05;;;;;;;;;;4971397;28;20110;-88
2021/12/29 07:54:26;;;;;;;144.35;62.30;;;;;;;;;;4972098;28;20086;-88
2021/12/29 07:56:57;;;;;;;128.35;62.42;;;;;;;;;;4971563;28;20037;-88
2021/12/29 07:59:22;;;;;;;129.13;62.05;;;;;;;;;;4971067;28;20033;-88
2021/12/29 08:01:48;;;;;;;137.75;64.13;;;;;;;;;;4972765;28;20026;-88
2021/12/29 08:04:14;;;;;;;148.82;66.40;;;;;;;;;;4972676;28;20775;-88
2021/12/29 08:06:39;;;;;;;140.18;66.93;;;;;;;;;;4971428;28;20090;-88
2021/12/29 08:09:07;;;;;;;142.02;65.47;;;;;;;;;;4971377;28;20027;-88
2021/12/29 08:11:32;;;;;;;150.50;70.72;;;;;;;;;;4972259;28;20019;-88
2021/12/29 08:13:58;;;;;;;154.18;69.85;;;;;;;;;;4972510;28;20022;-88
2021/12/29 08:16:23;;;;;;;140.70;67.60;;;;;;;;;;4972700;28;20034;-88
2021/12/29 08:18:49;;;;;;;138.90;65.60;;;;;;;;;;4972578;28;20356;-88
2021/12/29 08:21:14;;;;;;;133.10;62.95;;;;;;;;;;4972193;28;20030;-87
2021/12/29 08:23:40;;;;;;;135.77;66.28;;;;;;;;;;4976213;28;20053;-88
2021/12/29 08:26:05;;;;;;;145.48;66.57;;;;;;;;;;4974397;28;20027;-88
2021/12/29 08:28:30;;;;;;;135.82;66.20;;;;;;;;;;4992324;28;20026;-88
2021/12/29 08:30:56;;;;;;;139.27;68.68;;;;;;;;;;4976138;28;20479;-88
2021/12/29 08:33:22;;;;;;;143.15;67.28;;;;;;;;;;4975855;28;20113;-89
2021/12/29 08:35:48;;;;;;;146.50;66.82;;;;;;;;;;4975695;28;20113;-88
2021/12/29 08:38:14;;;;;;;142.75;65.72;;;;;;;;;;4974163;28;20157;-89
2021/12/29 08:40:40;;;;;;;149.63;70.75;;;;;;;;;;4974102;28;20592;-89
2021/12/29 08:43:06;;;;;;;142.25;69.25;;;;;;;;;;4973106;28;20029;-89
2021/12/29 08:45:34;;;;;;;138.23;68.10;;;;;;;;;;4974000;28;20026;-88
2021/12/29 08:47:59;;;;;;;142.60;68.13;;;;;;;;;;4973127;28;20539;-88
2021/12/29 08:50:32;;;;;;;144.20;68.35;;;;;;;;;;4972659;28;20121;-87
2021/12/29 08:52:58;;;;;;;150.75;66.50;;;;;;;;;;4973808;28;20038;-87
2021/12/29 08:55:23;;;;;;;155.10;67.95;;;;;;;;;;4991198;28;20066;-87
2021/12/29 08:57:49;;;;;;;150.77;68.72;;;;;;;;;;4973425;28;20103;-87
2021/12/29 09:00:15;;;;;;;157.25;70.43;;;;;;;;;;4973462;28;20015;-87
2021/12/29 09:02:41;;;;;;;162.55;69.28;;;;;;;;;;4973577;28;20030;-88
2021/12/29 09:05:06;;;;;;;165.40;75.22;;;;;;;;;;4974106;28;20015;-88
2021/12/29 09:07:31;;;;;;;158.60;68.03;;;;;;;;;;4973801;28;20022;-87
2021/12/29 09:09:57;;;;;;;176.50;74.28;;;;;;;;;;4991552;28;20034;-88
2021/12/29 09:12:22;;;;;;;165.55;72.72;;;;;;;;;;4992326;28;20693;-88
2021/12/29 09:14:48;;;;;;;164.45;72.40;;;;;;;;;;4973972;28;20129;-88
2021/12/29 09:17:14;;;;;;;177.32;77.53;;;;;;;;;;4991331;28;20038;-88
2021/12/29 09:19:41;;;;;;;168.25;75.90;;;;;;;;;;4973869;28;20023;-88
2021/12/29 09:22:07;;;;;;;172.60;73.30;;;;;;;;;;4973950;28;20485;-88
2021/12/29 09:24:32;;;;;;;171.90;75.55;;;;;;;;;;4966398;28;20170;-88
2021/12/29 09:26:57;;;;;;;169.23;77.87;;;;;;;;;;4955087;28;20046;-88
2021/12/29 09:29:22;;;;;;;181.80;77.63;;;;;;;;;;4953693;28;20310;-88
2021/12/29 09:31:47;;;;;;;175.65;77.53;;;;;;;;;;4969640;28;20463;-87
2021/12/29 09:34:13;;;;;;;174.50;74.80;;;;;;;;;;4971243;28;20054;-88
2021/12/29 09:36:38;;;;;;;168.00;75.05;;;;;;;;;;4969618;28;20385;-88
2021/12/29 09:39:04;;;;;;;161.23;71.82;;;;;;;;;;4969537;28;20760;-88
2021/12/29 09:41:31;;;;;;;157.23;72.53;;;;;;;;;;4972021;28;20360;-88
2021/12/29 09:43:56;;;;;;;160.32;71.47;;;;;;;;;;4970528;28;20076;-87
2021/12/29 09:46:21;;;;;;;165.82;70.90;;;;;;;;;;4970379;28;20117;-88
2021/12/29 09:48:48;;;;;;;166.23;74.65;;;;;;;;;;4970932;28;20030;-88
2021/12/29 09:51:14;;;;;;;169.23;74.10;;;;;;;;;;4969119;28;20387;-89
2021/12/29 09:53:40;;;;;;;163.27;71.38;;;;;;;;;;5039858;23;20069;-89
2021/12/29 09:56:09;;;;;;;185.38;77.72;;;;;;;;;;4989162;28;20041;-89
2021/12/29 09:58:39;;;;;;;155.90;69.18;;;;;;;;;;5014159;23;20062;-90
2021/12/29 10:01:10;;;;;;;163.32;73.88;;;;;;;;;;4988736;23;20054;-89
2021/12/29 10:03:37;;;;;;;153.88;66.43;;;;;;;;;;4968118;28;20079;-88
2021/12/29 10:08:52;;;;;;;164.57;72.05;;;;;;;;;;6040129;23;19916;-90
2021/12/29 10:37:11;;;;;;;146.50;67.35;;;;;;;;;;5442241;23;20117;-88
2021/12/29 10:39:36;;;;;;;140.07;67.60;;;;;;;;;;4956626;28;20075;-89
2021/12/29 10:42:09;;;;;;;150.70;68.68;;;;;;;;;;4952863;28;20021;-89
2021/12/29 10:44:39;;;;;;;142.00;67.60;;;;;;;;;;3855023;23;20426;-89
2021/12/29 10:47:18;;;;;;;134.50;62.03;;;;;;;;;;4988384;28;20026;-89
2021/12/29 10:49:49;;;;;;;135.20;59.85;;;;;;;;;;4981705;23;20439;-88
2021/12/29 10:52:14;;;;;;;135.63;61.38;;;;;;;;;;4954886;28;20034;-88
2021/12/29 10:54:42;;;;;;;129.70;56.97;;;;;;;;;;4971409;28;20030;-89
2021/12/29 10:57:12;;;;;;;149.68;64.38;;;;;;;;;;4950722;28;20039;-89
2021/12/29 10:59:41;;;;;;;139.20;65.00;;;;;;;;;;4954912;28;20555;-89
2021/12/29 11:04:36;;;;;;;156.73;64.00;;;;;;;;;;3486863;23;20065;-90
2021/12/29 11:07:04;;;;;;;131.75;58.83;;;;;;;;;;4995756;28;20026;-89
2021/12/29 11:09:32;;;;;;;135.05;62.33;;;;;;;;;;4978127;28;20058;-90
2021/12/29 11:11:58;;;;;;;132.88;57.50;;;;;;;;;;4973864;28;20054;-90
2021/12/29 11:14:26;;;;;;;126.80;55.25;;;;;;;;;;4974552;28;20061;-90
2021/12/29 11:17:05;;;;;;;124.95;55.38;;;;;;;;;;4974669;28;20065;-89
2021/12/29 11:19:31;;;;;;;124.15;56.13;;;;;;;;;;4129832;23;20161;-90
2021/12/29 11:22:07;;;;;;;122.32;56.92;;;;;;;;;;4972376;28;20066;-90
2021/12/29 11:24:59;;;;;;;141.43;60.75;;;;;;;;;;4008102;23;21278;31
2021/12/29 11:30:14;;;;;;;148.15;63.70;;;;;;;;;;3610229;23;20059;-90
2021/12/29 11:32:45;;;;;;;140.95;61.55;;;;;;;;;;4995911;23;20630;-89
2021/12/29 11:37:46;;;;;;;142.77;63.72;;;;;;;;;;4940887;23;20055;-89
2021/12/29 11:40:14;;;;;;;137.38;63.00;;;;;;;;;;4918007;29;20028;-89
2021/12/29 11:42:41;;;;;;;136.32;58.15;;;;;;;;;;4914434;29;20031;-89
2021/12/29 11:45:11;;;;;;;130.43;59.00;;;;;;;;;;4916907;29;20051;-90
2021/12/29 11:47:37;;;;;;;144.65;62.70;;;;;;;;;;4917874;29;20035;-89
2021/12/29 11:50:06;;;;;;;128.93;62.03;;;;;;;;;;5162339;23;20054;-89
2021/12/29 11:52:51;;;;;;;126.38;58.53;;;;;;;;;;4952150;29;20023;-89
2021/12/29 11:55:21;;;;;;;134.80;61.25;;;;;;;;;;4947664;29;20031;-89
2021/12/29 11:57:47;;;;;;;131.85;57.72;;;;;;;;;;4934538;29;20016;-89
2021/12/29 12:00:17;;;;;;;136.43;60.35;;;;;;;;;;4934237;29;20055;-89
2021/12/29 12:02:43;;;;;;;131.05;57.55;;;;;;;;;;4933432;29;20019;-89
2021/12/29 12:05:10;;;;;;;123.05;56.05;;;;;;;;;;4932845;29;20079;-89
2021/12/29 12:07:40;;;;;;;123.68;57.95;;;;;;;;;;4932347;29;20034;-89
2021/12/29 12:10:15;;;;;;;122.63;54.92;;;;;;;;;;4913714;29;20044;-89
2021/12/29 12:12:52;;;;;;;115.82;55.22;;;;;;;;;;4947792;29;20111;-89
2021/12/29 12:15:27;;;;;;;123.80;55.30;;;;;;;;;;4932020;29;20044;-89
2021/12/29 12:18:06;;;;;;;127.32;56.67;;;;;;;;;;4935202;29;20091;-90
2021/12/29 12:20:29;;;;;;;117.50;55.60;;;;;;;;;;2644211;23;21263;31
2021/12/29 12:25:27;;;;;;;114.15;51.38;;;;;;;;;;5006761;23;20061;-89
2021/12/29 12:27:58;;;;;;;112.18;52.63;;;;;;;;;;4972378;28;20026;-90
2021/12/29 12:33:36;;;;;;;121.22;55.45;;;;;;;;;;4971503;28;20078;-89
2021/12/29 12:36:09;;;;;;;119.03;51.47;;;;;;;;;;4953761;28;20051;-90
2021/12/29 12:38:43;;;;;;;117.95;52.72;;;;;;;;;;4966858;28;20097;-90
2021/12/29 12:41:12;;;;;;;106.35;51.05;;;;;;;;;;5100044;23;20055;-89
2021/12/29 12:43:49;;;;;;;98.70;47.78;;;;;;;;;;4951013;29;20042;-89
2021/12/29 12:46:26;;;;;;;96.53;48.25;;;;;;;;;;4953760;29;20771;-89
2021/12/29 12:48:53;;;;;;;97.45;45.40;;;;;;;;;;4950136;29;20118;-89
2021/12/29 12:51:24;;;;;;;108.75;49.05;;;;;;;;;;4950828;29;20114;-89
2021/12/29 12:53:56;;;;;;;105.03;50.92;;;;;;;;;;4950723;29;20038;-89
2021/12/29 12:56:25;;;;;;;97.78;46.25;;;;;;;;;;4935077;29;20039;-89
2021/12/29 12:58:51;;;;;;;74.90;38.88;;;;;;;;;;4951221;29;20396;-88
2021/12/29 13:01:18;;;;;;;78.43;43.35;;;;;;;;;;4934315;29;20468;-89
2021/12/29 13:03:44;;;;;;;87.07;44.90;;;;;;;;;;4929036;29;20472;-89
2021/12/29 13:06:12;;;;;;;88.68;44.67;;;;;;;;;;4950532;29;20031;-90
2021/12/29 13:08:40;;;;;;;76.95;39.25;;;;;;;;;;4951526;23;20046;-90
2021/12/29 13:11:08;;;;;;;83.93;42.20;;;;;;;;;;4973548;28;20053;-89
2021/12/29 13:13:35;;;;;;;89.22;42.58;;;;;;;;;;4968102;28;20019;-89
2021/12/29 13:16:13;;;;;;;95.45;45.10;;;;;;;;;;4954670;28;20141;-89
2021/12/29 13:18:39;;;;;;;93.30;44.13;;;;;;;;;;4954164;28;20031;-90
2021/12/29 13:21:11;;;;;;;93.18;42.72;;;;;;;;;;4952662;28;20027;-89
2021/12/29 13:23:38;;;;;;;93.25;43.47;;;;;;;;;;4953471;28;20038;-89
2021/12/29 13:26:07;;;;;;;89.78;42.22;;;;;;;;;;4953991;28;20122;-89
2021/12/29 13:28:33;;;;;;;89.75;40.60;;;;;;;;;;4953422;28;20382;-89
2021/12/29 13:31:00;;;;;;;84.93;40.80;;;;;;;;;;4953934;28;20015;-89
2021/12/29 13:33:27;;;;;;;89.63;42.63;;;;;;;;;;4955310;28;20029;-89
2021/12/29 13:35:55;;;;;;;86.75;42.05;;;;;;;;;;4955548;28;20082;-89
2021/12/29 13:38:22;;;;;;;88.28;40.60;;;;;;;;;;4956344;28;20026;-89
2021/12/29 13:40:49;;;;;;;83.65;38.70;;;;;;;;;;4953782;28;20094;-89
2021/12/29 13:43:17;;;;;;;81.43;38.83;;;;;;;;;;4959396;23;20047;-89
2021/12/29 13:45:43;;;;;;;86.55;42.65;;;;;;;;;;4947171;29;20137;-89
2021/12/29 13:48:17;;;;;;;83.72;40.80;;;;;;;;;;4945982;29;20047;-89
2021/12/29 13:51:02;;;;;;;86.43;42.35;;;;;;;;;;4930625;29;20153;-90
2021/12/29 13:53:29;;;;;;;87.18;41.30;;;;;;;;;;4931008;29;20043;-89
2021/12/29 13:55:56;;;;;;;93.15;42.67;;;;;;;;;;4930567;29;20038;-88
2021/12/29 13:58:23;;;;;;;89.97;40.35;;;;;;;;;;4930658;29;20563;-89
2021/12/29 14:00:48;;;;;;;104.72;46.53;;;;;;;;;;4930135;29;20031;-89
2021/12/29 14:03:14;;;;;;;90.70;44.67;;;;;;;;;;4983943;23;20054;-89
2021/12/29 14:05:44;;;;;;;86.38;40.17;;;;;;;;;;4954054;28;20038;-89
2021/12/29 14:08:13;;;;;;;94.85;43.15;;;;;;;;;;4954508;28;20395;-89
2021/12/29 14:10:40;;;;;;;96.55;45.03;;;;;;;;;;4953386;28;20054;-89
2021/12/29 14:13:08;;;;;;;96.25;44.72;;;;;;;;;;4956489;28;20026;-89
2021/12/29 14:15:34;;;;;;;93.38;44.88;;;;;;;;;;4955906;28;20027;-89
2021/12/29 14:18:09;;;;;;;91.88;44.20;;;;;;;;;;4956117;28;20022;-89
2021/12/29 14:20:35;;;;;;;96.45;43.90;;;;;;;;;;4955745;28;20022;-89
2021/12/29 14:23:02;;;;;;;105.65;45.22;;;;;;;;;;4971102;28;20209;-89
2021/12/29 14:25:33;;;;;;;97.85;48.15;;;;;;;;;;4954614;28;20110;-89
2021/12/29 14:27:59;;;;;;;105.57;47.50;;;;;;;;;;4954809;28;20220;-89
2021/12/29 14:30:26;;;;;;;112.07;51.40;;;;;;;;;;4949092;28;20113;-89
2021/12/29 14:32:54;;;;;;;105.55;47.55;;;;;;;;;;4953744;28;20018;-89
2021/12/29 14:35:20;;;;;;;111.63;47.85;;;;;;;;;;4958097;28;20015;-89
2021/12/29 14:37:46;;;;;;;137.10;51.60;;;;;;;;;;4966434;28;20030;-89
2021/12/29 14:40:28;;;;;;;110.85;47.95;;;;;;;;;;4966378;28;20522;-89
2021/12/29 14:42:53;;;;;;;124.88;53.17;;;;;;;;;;4959529;28;20030;-88
2021/12/29 14:45:19;;;;;;;147.48;54.78;;;;;;;;;;4975961;28;20026;-89
2021/12/29 14:47:49;;;;;;;211.77;56.22;;;;;;;;;;4959063;28;20019;-89
2021/12/29 14:50:20;;;;;;;154.57;55.10;;;;;;;;;;4959902;28;20015;-89
2021/12/29 14:52:46;;;;;;;178.90;58.92;;;;;;;;;;4977369;28;20042;-89
2021/12/29 14:55:13;;;;;;;139.07;53.25;;;;;;;;;;4958815;28;20038;-89
2021/12/29 14:57:38;;;;;;;112.13;49.00;;;;;;;;;;5011575;23;20070;-89
2021/12/29 15:00:15;;;;;;;127.43;51.60;;;;;;;;;;4939085;29;20051;-88